• Join FlightAware (Why Join?)
  • Login
  • US Flag 
08:57PM EDT


 

Airport Tracker/Info


-or-


 

Live Flight TrackerFlight Track Log ✈ ASQ6021 ✈ 17-May-2012 ✈ KORD - KROC

Flight Track Log - Related Links

Times and Time Zones

All times are in EDT time to prevent confusion due to time zone crossing. See the ASQ6021 flight status page for this flight to view local times or setup timezone preferences in your user account.

Time Position Orientation Groundspeed Altitude Reporting Facility
EDT Latitude Longitude Course Direction KTS MPH feet Rate Location/Type
06:11PM 41.9167 -87.8833 74° East 191 220 3,100  Level Chicago TRACON
06:16PM 42.0056 -87.4608 69° East 280 322 10,900 1,500 Climbing Chicago Center
06:17PM 42.0392 -87.3453 70° East 301 346 11,900 1,440 Climbing Chicago Center
06:18PM 42.0742 -87.2156 71° East 337 388 13,800 1,800 Climbing Chicago Center
06:19PM 42.1072 -87.0856 83° East 351 404 15,600 1,800 Climbing Chicago Center
06:20PM 42.1189 -86.9481 87° East 357 411 17,500 1,560 Climbing Chicago Center
06:21PM 42.1242 -86.8050 88° East 372 428 18,800 1,380 Climbing Chicago Center
06:22PM 42.1275 -86.6678 87° East 387 445 20,300 1,500 Climbing Chicago Center
06:23PM 42.1339 -86.5050 86° East 393 452 21,900 1,560 Climbing Chicago Center
06:24PM 42.1406 -86.3592 89° East 398 458 23,500 1,500 Climbing Chicago Center
06:25PM 42.1428 -86.2106 89° East 392 451 24,900 720 Climbing Chicago Center
06:26PM 42.1447 -86.0536 90° East 412 474 25,000  Climbing Chicago Center
06:27PM 42.1439 -85.8883 91° East 423 487 25,000  Level Chicago Center
06:28PM 42.1408 -85.7175 91° East 437 503 25,000  Level Chicago Center
06:29PM 42.1394 -85.5469 91° East 445 512 25,000  Level Chicago Center
06:30PM 42.1383 -85.3928 91° East 450 518 25,000  Level Chicago Center
06:33PM 42.1328 -84.9067 91° East 453 521 25,000  Level Cleveland Center
06:34PM 42.1294 -84.7161 92° East 458 527 25,000  Level Cleveland Center
06:35PM 42.1253 -84.5367 87° East 464 534 25,000  Level Cleveland Center
06:36PM 42.1311 -84.3661 87° East 464 534 25,000  Level Cleveland Center
06:37PM 42.1361 -84.2122 89° East 458 527 25,000  Level Cleveland Center
06:38PM 42.1372 -84.0361 89° East 458 527 25,000  Level Cleveland Center
06:39PM 42.1403 -83.8653 89° East 453 521 25,000  Level Cleveland Center
06:40PM 42.1431 -83.6917 89° East 459 528 25,000  Level Cleveland Center
06:41PM 42.1458 -83.4986 88° East 459 528 25,000  Level Cleveland Center
06:42PM 42.1503 -83.3222 90° East 459 528 25,000  Level Cleveland Center
06:43PM 42.1497 -83.1656 88° East 459 528 25,000  Level Cleveland Center
06:44PM 42.1536 -82.9864 88° East 464 534 25,000  Level Cleveland Center
06:45PM 42.1572 -82.8100 91° East 464 534 25,000  Level Cleveland Center
06:46PM 42.1542 -82.6333 89° East 469 540 25,000  Level Cleveland Center
06:47PM 42.1572 -82.4569 90° East 469 540 25,000  Level Cleveland Center
06:48PM 42.1581 -82.2750 90° East 474 545 25,000  Level Cleveland Center
06:49PM 42.1583 -82.0986 89° East 474 545 25,000  Level Cleveland Center
06:50PM 42.1606 -81.9222 89° East 474 545 25,000  Level Cleveland Center
06:51PM 42.1625 -81.7456 91° East 474 545 25,000  Level Cleveland Center
06:52PM 42.1600 -81.5522 90° East 474 545 25,000  Level Cleveland Center
06:53PM 42.1594 -81.3731 89° East 474 545 25,000  Level Cleveland Center
06:54PM 42.1606 -81.1939 91° East 480 552 25,000  Level Cleveland Center
06:55PM 42.1592 -81.0117 91° East 475 547 25,000  Level Cleveland Center
06:56PM 42.1578 -80.8353 86° East 470 541 25,000  Level Cleveland Center
06:57PM 42.1664 -80.6561 72° East 475 547 25,000  Level Cleveland Center
06:58PM 42.2058 -80.4906 72° East 470 541 25,000  Level Cleveland Center
06:59PM 42.2472 -80.3194 73° East 475 547 25,000  Level Cleveland Center
07:00PM 42.2822 -80.1650 72° East 480 552 25,000  Level Cleveland Center
07:01PM 42.3233 -79.9964 72° East 480 552 25,000  Level Cleveland Center
07:02PM 42.3639 -79.8272 72° East 473 544 25,000  Level Cleveland Center
07:03PM 42.4044 -79.6553 73° East 473 544 25,000  Level Cleveland Center
07:04PM 42.4444 -79.4803 72° East 478 550 25,000 -840 Level Cleveland Center
07:05PM 42.4906 -79.2908 50° Northeast 483 556 23,400 -1,980 Descending Cleveland Center
07:06PM 42.5622 -79.1767 47° Northeast 451 519 21,100 -2,580 Descending Cleveland Center
07:07PM 42.6439 -79.0561 45° Northeast 432 497 18,300 -2,820 Descending Cleveland Center
07:08PM 42.7278 -78.9411 47° Northeast 401 461 15,500 -2,700 Descending Cleveland Center
07:09PM 42.7992 -78.8372 47° Northeast 383 441 12,900 -2,280 Descending Cleveland Center
07:10PM 42.8644 -78.7419 47° Northeast 371 427 11,000 -1,260 Descending Cleveland Center
07:10PM 42.9167 -78.6667 69° East 351 404 10,900 -660 Descending Buffalo TRACON
07:11PM 42.9450 -78.5667 74° East 365 420 10,000 -480 Descending Cleveland Center
07:12PM 42.9717 -78.4353 78° East 352 405 10,000 -600 Level Cleveland Center
07:13PM 42.9883 -78.3269 74° East 294 338 8,800 -1,440 Descending Cleveland Center
07:14PM 43.0114 -78.2181 75° East 277 319 7,200 -960 Descending Cleveland Center
07:15PM 43.0300 -78.1236 64° Northeast 262 302 6,900 -960 Descending Cleveland Center
07:16PM 43.0617 -78.0342 65° Northeast 267 307 5,300 -1,680 Descending Cleveland Center
07:17PM 43.0928 -77.9419 72° East 260 299 3,600 -1,440 Descending Cleveland Center
07:18PM 43.1136 -77.8531 85° East 241 277 2,500 -720 Descending Cleveland Center
07:19PM 43.1181 -77.7789 85° East 198 228 2,200 -600 Descending Cleveland Center
07:20PM 43.1211 -77.7275 85° East 145 167 1,300 -900 Descending Cleveland Center